createdAt,value
2019-02-27T00:01:16.760Z,65.13
2019-02-27T00:03:44.807Z,52.97
2019-02-27T00:06:15.872Z,53.80
2019-02-27T00:08:45.702Z,63.50
2019-02-27T00:11:15.333Z,54.70
2019-02-27T00:13:44.889Z,47.70
2019-02-27T00:16:14.434Z,52.33
2019-02-27T00:18:44.010Z,53.50
2019-02-27T00:21:13.537Z,58.57
2019-02-27T00:23:43.048Z,54.23
2019-02-27T00:26:12.644Z,65.20
2019-02-27T00:28:42.283Z,70.57
2019-02-27T00:31:12.086Z,62.53
2019-02-27T00:33:41.661Z,59.73
2019-02-27T00:36:12.288Z,67.10
2019-02-27T00:38:42.458Z,59.23
2019-02-27T00:41:12.955Z,66.50
2019-02-27T00:43:42.674Z,54.30
2019-02-27T00:46:13.341Z,56.70
2019-02-27T00:48:43.568Z,47.47
2019-02-27T00:51:13.163Z,40.40
2019-02-27T00:53:42.718Z,48.30
2019-02-27T00:56:12.896Z,55.83
2019-02-27T00:58:42.666Z,48.40
2019-02-27T01:01:12.600Z,46.73
2019-02-27T01:03:42.868Z,59.37
2019-02-27T01:06:14.828Z,52.47
2019-02-27T01:08:43.714Z,59.93
2019-02-27T01:11:13.272Z,89.67
2019-02-27T01:13:42.830Z,68.83
2019-02-27T01:16:16.942Z,76.17
2019-02-27T01:18:43.768Z,62.00
2019-02-27T01:21:13.307Z,74.40
2019-02-27T01:23:44.691Z,57.87
2019-02-27T01:26:15.367Z,62.50
2019-02-27T01:28:45.626Z,72.43
2019-02-27T01:31:15.184Z,58.30
2019-02-27T01:33:44.743Z,69.53
2019-02-27T01:36:14.362Z,62.03
2019-02-27T01:38:43.986Z,53.20
2019-02-27T01:41:13.635Z,52.67
2019-02-27T01:43:43.187Z,70.63
2019-02-27T01:46:12.705Z,68.60
2019-02-27T01:48:43.641Z,59.93
2019-02-27T01:51:13.397Z,63.20
2019-02-27T01:53:42.990Z,71.17
2019-02-27T01:56:12.557Z,67.03
2019-02-27T01:58:44.116Z,56.40
2019-02-27T02:01:13.357Z,59.40
2019-02-27T02:03:47.212Z,48.87
2019-02-27T02:06:14.176Z,48.10
2019-02-27T02:08:48.018Z,52.63
2019-02-27T02:11:15.037Z,55.70
2019-02-27T02:14:22.727Z,55.03
2019-02-27T02:17:12.561Z,62.80
2019-02-27T02:20:30.589Z,60.83
2019-02-27T02:23:27.007Z,50.57
2019-02-27T02:26:28.393Z,54.60
2019-02-27T02:29:33.743Z,59.73
2019-02-27T02:32:22.501Z,48.30
2019-02-27T02:35:15.803Z,51.57
2019-02-27T02:38:35.494Z,55.07
2019-02-27T02:41:43.596Z,52.43
2019-02-27T02:44:40.193Z,53.60
2019-02-27T02:47:40.926Z,58.40
2019-02-27T02:50:33.147Z,54.83
2019-02-27T02:54:01.736Z,47.97
2019-02-27T02:57:20.311Z,52.50
2019-02-27T03:00:20.191Z,52.33
2019-02-27T03:03:36.200Z,53.00
2019-02-27T03:06:40.941Z,59.03
2019-02-27T03:09:32.483Z,53.90
2019-02-27T03:12:35.107Z,53.53
2019-02-27T03:15:31.229Z,54.27
2019-02-27T03:18:15.115Z,51.67
2019-02-27T03:20:52.313Z,54.07
2019-02-27T03:24:07.303Z,51.03
2019-02-27T03:27:14.567Z,42.07
2019-02-27T03:30:34.031Z,42.47
2019-02-27T03:33:43.497Z,50.50
2019-02-27T03:36:42.842Z,48.80
2019-02-27T03:39:35.934Z,47.90
2019-02-27T03:42:52.330Z,53.00
2019-02-27T03:46:09.259Z,55.10
2019-02-27T03:49:05.004Z,51.77
2019-02-27T03:52:23.283Z,60.93
2019-02-27T03:55:50.184Z,56.70
2019-02-27T03:58:53.811Z,57.77
2019-02-27T04:01:36.529Z,63.33
2019-02-27T04:04:51.784Z,56.87
2019-02-27T04:08:08.610Z,66.50
2019-02-27T04:10:35.533Z,57.03
2019-02-27T04:13:05.071Z,65.07
2019-02-27T04:15:35.769Z,56.37
2019-02-27T04:18:03.548Z,53.97
2019-02-27T04:20:33.119Z,63.50
2019-02-27T04:23:03.096Z,56.50
2019-02-27T04:25:32.697Z,65.63
2019-02-27T04:28:02.272Z,62.03
2019-02-27T04:30:31.837Z,57.37
2019-02-27T04:33:01.415Z,63.83
2019-02-27T04:35:30.968Z,68.07
2019-02-27T04:38:00.602Z,71.20
2019-02-27T04:40:30.219Z,75.53
2019-02-27T04:42:59.965Z,59.90
2019-02-27T04:45:29.573Z,52.10
2019-02-27T04:47:59.212Z,50.63
2019-02-27T04:50:28.850Z,52.83
2019-02-27T04:52:58.664Z,54.53
2019-02-27T04:55:28.226Z,56.63
2019-02-27T04:57:57.900Z,61.53
2019-02-27T05:00:27.480Z,57.07
2019-02-27T05:02:57.025Z,50.33
2019-02-27T05:05:26.589Z,52.50
2019-02-27T05:07:56.232Z,104.37
2019-02-27T05:10:25.828Z,62.90
2019-02-27T05:12:55.387Z,62.50
2019-02-27T05:15:24.957Z,45.90
2019-02-27T05:17:55.664Z,53.10
2019-02-27T05:20:25.955Z,45.80
2019-02-27T05:23:00.121Z,47.30
2019-02-27T05:25:26.834Z,72.90
2019-02-27T05:27:56.374Z,57.33
2019-02-27T05:30:25.953Z,74.67
2019-02-27T05:32:55.519Z,65.20
2019-02-27T05:35:25.196Z,54.73
2019-02-27T05:37:54.789Z,41.53
2019-02-27T05:40:25.933Z,41.13
2019-02-27T05:42:55.622Z,45.63
2019-02-27T05:45:25.188Z,46.43
2019-02-27T05:47:54.710Z,51.83
2019-02-27T05:50:24.256Z,55.70
2019-02-27T05:52:53.811Z,57.73
2019-02-27T05:55:23.431Z,61.33
2019-02-27T05:57:52.984Z,47.13
2019-02-27T06:00:22.629Z,56.03
2019-02-27T06:02:52.215Z,87.03
2019-02-27T06:05:21.817Z,58.97
2019-02-27T06:07:51.456Z,48.13
2019-02-27T06:10:23.427Z,48.33
2019-02-27T06:12:52.518Z,53.47
2019-02-27T06:15:22.127Z,60.07
2019-02-27T06:17:51.811Z,58.70
2019-02-27T06:20:21.447Z,64.97
2019-02-27T06:22:51.018Z,43.70
2019-02-27T06:25:23.350Z,50.57
2019-02-27T06:27:51.950Z,41.10
2019-02-27T06:30:21.689Z,46.10
2019-02-27T06:32:51.250Z,55.53
2019-02-27T06:35:20.829Z,50.90
2019-02-27T06:37:51.329Z,33.50
2019-02-27T06:40:21.114Z,33.23
2019-02-27T06:42:53.401Z,43.23
2019-02-27T06:45:22.058Z,46.00
2019-02-27T06:47:51.688Z,42.67
2019-02-27T06:50:25.235Z,50.83
2019-02-27T06:52:52.515Z,44.70
2019-02-27T06:55:22.138Z,64.60
2019-02-27T06:57:51.710Z,49.20
2019-02-27T07:00:21.341Z,51.33
2019-02-27T07:02:55.260Z,39.03
2019-02-27T07:05:22.204Z,28.67
2019-02-27T07:07:51.905Z,26.03
2019-02-27T07:10:21.544Z,42.77
2019-02-27T07:12:54.415Z,40.70
2019-02-27T07:15:22.516Z,56.27
2019-02-27T07:17:52.158Z,50.00
2019-02-27T07:20:24.542Z,73.33
2019-02-27T07:22:53.050Z,51.73
2019-02-27T07:25:22.590Z,50.40
2019-02-27T07:27:52.166Z,39.87
2019-02-27T07:30:23.732Z,51.20
2019-02-27T07:32:53.039Z,32.47
2019-02-27T07:35:25.490Z,22.10
2019-02-27T07:37:53.969Z,36.43
2019-02-27T07:40:23.587Z,60.07
2019-02-27T07:42:53.119Z,65.17
2019-02-27T07:45:22.965Z,43.07
2019-02-27T07:47:52.590Z,45.57
2019-02-27T07:50:22.171Z,39.90
2019-02-27T07:52:52.216Z,52.23
2019-02-27T07:55:23.642Z,47.27
2019-02-27T07:57:58.308Z,51.00
2019-02-27T08:00:26.414Z,35.33
2019-02-27T08:02:56.144Z,47.30
2019-02-27T08:05:28.492Z,31.97
2019-02-27T08:07:57.065Z,38.90
2019-02-27T08:10:28.083Z,36.30
2019-02-27T08:12:57.768Z,47.37
2019-02-27T08:15:27.330Z,31.80
2019-02-27T08:17:58.081Z,43.53
2019-02-27T08:20:28.192Z,32.80
2019-02-27T08:22:59.943Z,48.80
2019-02-27T08:25:29.617Z,37.40
2019-02-27T08:27:59.150Z,45.40
2019-02-27T08:30:28.807Z,36.90
2019-02-27T08:32:58.389Z,33.63
2019-02-27T08:35:27.955Z,39.83
2019-02-27T08:38:02.657Z,26.10
2019-02-27T08:40:28.841Z,39.37
2019-02-27T08:42:58.430Z,44.53
2019-02-27T08:45:28.115Z,44.70
2019-02-27T08:47:57.735Z,38.63
2019-02-27T08:50:29.200Z,98.53
2019-02-27T08:53:00.142Z,57.23
2019-02-27T08:55:29.823Z,36.97
2019-02-27T08:57:59.356Z,47.60
2019-02-27T09:00:29.485Z,30.23
2019-02-27T09:03:02.448Z,28.37
2019-02-27T09:05:30.498Z,36.50
2019-02-27T09:08:00.182Z,20.23
2019-02-27T09:10:30.796Z,39.07
2019-02-27T09:13:05.523Z,25.60
2019-02-27T09:15:31.916Z,15.63
2019-02-27T09:18:01.915Z,22.53
2019-02-27T09:20:32.017Z,68.50
2019-02-27T09:23:01.554Z,12.10
2019-02-27T09:25:31.162Z,39.87
2019-02-27T09:28:00.759Z,43.63
2019-02-27T09:30:30.354Z,16.47
2019-02-27T09:32:59.906Z,17.63
2019-02-27T09:35:32.216Z,26.73
2019-02-27T09:38:00.922Z,9.77
2019-02-27T09:40:30.606Z,18.80
2019-02-27T09:43:00.273Z,23.03
2019-02-27T09:45:31.314Z,11.37
2019-02-27T09:48:01.251Z,9.67
2019-02-27T09:50:36.160Z,9.93
2019-02-27T09:53:05.715Z,34.40
2019-02-27T09:55:35.315Z,10.87
2019-02-27T09:58:09.902Z,29.80
2019-02-27T10:00:47.278Z,33.03
2019-02-27T10:03:20.213Z,10.67
2019-02-27T10:05:48.362Z,25.43
2019-02-27T10:08:18.290Z,16.93
2019-02-27T10:10:47.863Z,25.20
2019-02-27T10:13:17.482Z,30.73
2019-02-27T10:15:47.099Z,24.43
2019-02-27T10:18:18.880Z,26.07
2019-02-27T10:20:48.019Z,34.17
2019-02-27T10:23:17.550Z,29.73
2019-02-27T10:25:49.786Z,35.80
2019-02-27T10:28:19.000Z,26.70
2019-02-27T10:30:50.055Z,33.23
2019-02-27T10:33:19.933Z,15.37
2019-02-27T10:35:49.488Z,24.17
2019-02-27T10:38:19.067Z,5.50
2019-02-27T10:40:48.658Z,15.20
2019-02-27T10:43:18.273Z,6.77
2019-02-27T10:45:49.439Z,11.00
2019-02-27T10:48:19.102Z,10.43
2019-02-27T10:50:48.705Z,5.57
2019-02-27T10:53:18.319Z,7.80
2019-02-27T10:55:49.318Z,14.60
2019-02-27T10:58:19.195Z,42.33
2019-02-27T11:00:50.307Z,15.03
2019-02-27T11:03:19.897Z,9.00
2019-02-27T11:05:52.454Z,8.60
2019-02-27T11:08:20.787Z,18.03
2019-02-27T11:10:50.368Z,13.37
2019-02-27T11:13:19.900Z,28.23
2019-02-27T11:15:49.484Z,27.27
2019-02-27T11:18:19.068Z,20.97
2019-02-27T11:20:48.608Z,9.80
2019-02-27T11:23:18.367Z,6.07
2019-02-27T11:25:48.016Z,9.93
2019-02-27T11:28:17.679Z,10.70
2019-02-27T11:30:47.277Z,3.03
2019-02-27T11:33:25.713Z,9.73
2019-02-27T11:35:48.222Z,4.80
2019-02-27T11:38:17.897Z,7.73
2019-02-27T11:40:47.437Z,28.47
2019-02-27T11:43:17.272Z,10.03
2019-02-27T11:45:46.907Z,5.50
2019-02-27T11:48:16.457Z,5.77
2019-02-27T11:50:45.991Z,4.70
2019-02-27T11:53:15.605Z,7.10
2019-02-27T11:55:47.098Z,9.93
2019-02-27T11:58:16.534Z,16.50
2019-02-27T12:00:46.079Z,9.17
2019-02-27T12:03:15.621Z,1.93
2019-02-27T12:05:45.335Z,3.90
2019-02-27T12:08:14.897Z,30.37
2019-02-27T12:10:44.443Z,10.30
2019-02-27T12:13:14.006Z,20.03
2019-02-27T12:15:44.271Z,8.33
2019-02-27T12:18:13.795Z,5.13
2019-02-27T12:20:43.387Z,52.83
2019-02-27T12:23:12.937Z,26.57
2019-02-27T12:25:42.908Z,20.37
2019-02-27T12:28:12.451Z,27.83
2019-02-27T12:30:42.124Z,16.87
2019-02-27T12:33:11.755Z,27.77
2019-02-27T12:35:44.169Z,4.17
2019-02-27T12:38:12.683Z,4.20
2019-02-27T12:40:42.536Z,40.40
2019-02-27T12:43:17.247Z,17.67
2019-02-27T12:45:43.481Z,25.30
2019-02-27T12:48:13.391Z,53.37
2019-02-27T12:50:43.030Z,14.27
2019-02-27T12:53:12.687Z,11.17
2019-02-27T12:55:42.288Z,14.30
2019-02-27T12:58:13.423Z,3.10
2019-02-27T13:00:43.284Z,15.20
2019-02-27T13:03:12.857Z,7.53
2019-02-27T13:05:42.469Z,10.30
2019-02-27T13:08:12.155Z,14.93
2019-02-27T13:10:41.691Z,23.00
2019-02-27T13:13:11.288Z,22.40
2019-02-27T13:15:41.705Z,13.23
2019-02-27T13:18:11.526Z,11.63
2019-02-27T13:20:43.025Z,20.93
2019-02-27T13:23:12.486Z,17.77
2019-02-27T13:25:42.032Z,14.13
2019-02-27T13:28:14.643Z,4.37
2019-02-27T13:30:42.913Z,43.50
2019-02-27T13:33:12.550Z,8.53
2019-02-27T13:35:42.101Z,11.13
2019-02-27T13:38:11.865Z,9.63
2019-02-27T13:40:41.444Z,11.93
2019-02-27T13:43:10.993Z,8.63
2019-02-27T13:45:40.570Z,8.03
2019-02-27T13:48:10.225Z,10.70
2019-02-27T13:50:39.890Z,19.63
2019-02-27T13:53:09.593Z,14.27
2019-02-27T13:55:39.214Z,13.70
2019-02-27T13:58:08.840Z,17.60
2019-02-27T14:00:38.634Z,50.33
2019-02-27T14:03:12.110Z,22.40
2019-02-27T14:05:39.498Z,16.83
2019-02-27T14:08:09.090Z,7.77
2019-02-27T14:10:38.670Z,18.53
2019-02-27T14:13:09.756Z,11.60
2019-02-27T14:15:39.562Z,28.57
2019-02-27T14:18:13.465Z,19.40
2019-02-27T14:20:42.389Z,18.40
2019-02-27T14:23:14.547Z,10.33
2019-02-27T14:25:43.345Z,10.73
2019-02-27T14:28:13.067Z,14.10
2019-02-27T14:30:45.155Z,11.10
2019-02-27T14:33:14.706Z,7.53
2019-02-27T14:35:44.454Z,9.90
2019-02-27T14:38:14.007Z,7.50
2019-02-27T14:40:43.618Z,5.70
2019-02-27T14:43:13.236Z,12.23
2019-02-27T14:45:42.795Z,15.73
2019-02-27T14:48:12.460Z,16.33
2019-02-27T14:50:42.038Z,7.70
2019-02-27T14:53:11.614Z,13.73
2019-02-27T14:55:41.206Z,27.83
2019-02-27T14:58:10.758Z,11.03
2019-02-27T15:00:41.199Z,12.50
2019-02-27T15:03:10.930Z,50.80
2019-02-27T15:05:44.752Z,21.43
2019-02-27T15:08:11.826Z,60.40
2019-02-27T15:10:42.502Z,30.23
2019-02-27T15:13:12.216Z,21.00
2019-02-27T15:15:43.762Z,55.73
2019-02-27T15:18:14.036Z,31.53
2019-02-27T15:20:43.697Z,16.80
2019-02-27T15:23:13.276Z,17.40
2019-02-27T15:25:43.415Z,24.27
2019-02-27T15:28:13.155Z,33.37
2019-02-27T15:30:46.344Z,24.07
2019-02-27T15:33:14.137Z,16.60
2019-02-27T15:35:43.709Z,39.17
2019-02-27T15:38:13.319Z,56.30
2019-02-27T15:40:42.943Z,69.40
2019-02-27T15:43:16.952Z,81.23
2019-02-27T15:45:48.058Z,81.97
2019-02-27T15:48:15.249Z,68.73
2019-02-27T15:50:44.819Z,80.47
2019-02-27T15:53:15.161Z,84.80
2019-02-27T15:55:45.499Z,58.43
2019-02-27T15:58:16.730Z,110.97
2019-02-27T16:00:52.341Z,75.23
2019-02-27T16:03:17.902Z,65.37
2019-02-27T16:05:47.497Z,65.70
2019-02-27T16:08:17.173Z,60.10
2019-02-27T16:10:54.568Z,55.53
2019-02-27T16:13:18.174Z,35.07
2019-02-27T16:15:48.541Z,39.53
2019-02-27T16:18:18.817Z,57.27
2019-02-27T16:20:49.985Z,55.03
2019-02-27T16:23:19.694Z,55.77
2019-02-27T16:25:52.832Z,122.73
2019-02-27T16:28:20.709Z,113.30
2019-02-27T16:30:50.291Z,110.90
2019-02-27T16:33:24.026Z,85.93
2019-02-27T16:35:51.199Z,97.17
2019-02-27T16:38:20.884Z,112.53
2019-02-27T16:40:52.615Z,77.57
2019-02-27T16:43:21.984Z,109.37
2019-02-27T16:45:51.564Z,87.87
2019-02-27T16:48:21.159Z,75.60
2019-02-27T16:50:50.698Z,59.10
2019-02-27T16:53:20.280Z,60.00
2019-02-27T16:55:49.821Z,114.50
2019-02-27T16:58:19.450Z,117.83
2019-02-27T17:00:49.014Z,103.27
2019-02-27T17:03:18.569Z,118.73
2019-02-27T17:05:49.711Z,91.40
2019-02-27T17:08:19.463Z,62.40
2019-02-27T17:10:51.759Z,67.83
2019-02-27T17:13:20.417Z,86.73
2019-02-27T17:15:50.161Z,75.23
2019-02-27T17:18:19.732Z,78.40
2019-02-27T17:20:49.329Z,85.10
2019-02-27T17:23:19.200Z,89.47
2019-02-27T17:25:48.769Z,66.30
2019-02-27T17:28:18.307Z,78.03
2019-02-27T17:30:47.991Z,70.10
2019-02-27T17:33:17.557Z,94.03
2019-02-27T17:35:47.127Z,90.67
2019-02-27T17:38:16.768Z,93.43
2019-02-27T17:40:46.410Z,82.90
2019-02-27T17:43:16.114Z,86.07
2019-02-27T17:45:46.939Z,96.80
2019-02-27T17:48:17.067Z,72.47
2019-02-27T17:50:46.623Z,66.07
2019-02-27T17:53:16.168Z,60.63
2019-02-27T17:55:45.712Z,56.07
2019-02-27T17:58:15.295Z,54.77
2019-02-27T18:00:50.091Z,51.87
2019-02-27T18:03:16.712Z,105.83
2019-02-27T18:05:46.273Z,205.37
2019-02-27T18:08:17.060Z,183.20
2019-02-27T18:10:46.830Z,213.07
2019-02-27T18:13:16.422Z,171.60
2019-02-27T18:15:45.993Z,153.90
2019-02-27T18:18:15.562Z,107.70
2019-02-27T18:20:45.119Z,94.00
2019-02-27T18:23:14.696Z,83.60
2019-02-27T18:25:44.392Z,84.73
2019-02-27T18:28:13.918Z,88.00
2019-02-27T18:30:43.504Z,126.90
2019-02-27T18:33:14.261Z,88.60
2019-02-27T18:35:44.565Z,76.40
2019-02-27T18:38:14.113Z,85.33
2019-02-27T18:40:43.749Z,81.13
2019-02-27T18:43:13.358Z,73.53
2019-02-27T18:45:42.965Z,91.37
2019-02-27T18:48:12.618Z,205.80
2019-02-27T18:50:42.207Z,140.70
2019-02-27T18:53:13.475Z,99.63
2019-02-27T18:55:44.102Z,105.40
2019-02-27T18:58:13.841Z,134.13
2019-02-27T19:00:43.365Z,165.20
2019-02-27T19:03:12.966Z,119.67
2019-02-27T19:05:42.625Z,134.93
2019-02-27T19:08:12.201Z,141.87
2019-02-27T19:10:42.723Z,131.00
2019-02-27T19:13:12.409Z,120.90
2019-02-27T19:15:45.513Z,100.10
2019-02-27T19:18:13.430Z,114.93
2019-02-27T19:20:43.026Z,109.07
2019-02-27T19:23:17.146Z,78.10
2019-02-27T19:25:43.916Z,84.47
2019-02-27T19:28:13.475Z,70.17
2019-02-27T19:30:43.071Z,79.03
2019-02-27T19:33:12.728Z,80.80
2019-02-27T19:35:43.012Z,76.90
2019-02-27T19:38:13.735Z,78.97
2019-02-27T19:40:43.462Z,100.43
2019-02-27T19:43:14.214Z,71.83
2019-02-27T19:45:43.828Z,57.00
2019-02-27T19:48:13.741Z,56.47
2019-02-27T19:50:46.259Z,43.73
2019-02-27T19:53:14.597Z,34.77
2019-02-27T19:55:44.158Z,25.57
2019-02-27T19:58:17.178Z,41.67
2019-02-27T20:00:48.445Z,17.93
2019-02-27T20:03:16.653Z,16.47
2019-02-27T20:05:46.276Z,12.20
2019-02-27T20:08:15.818Z,13.53
2019-02-27T20:10:45.519Z,18.40
2019-02-27T20:13:15.125Z,18.60
2019-02-27T20:15:45.763Z,21.60
2019-02-27T20:18:16.078Z,18.63
2019-02-27T20:20:45.608Z,18.47
2019-02-27T20:23:15.286Z,21.63
2019-02-27T20:25:45.118Z,31.00
2019-02-27T20:28:14.697Z,21.57
2019-02-27T20:30:44.306Z,28.30
2019-02-27T20:33:13.864Z,27.63
2019-02-27T20:35:43.622Z,24.63
2019-02-27T20:38:16.009Z,24.07
2019-02-27T20:40:44.682Z,21.47
2019-02-27T20:43:14.321Z,20.23
2019-02-27T20:45:44.102Z,19.17
2019-02-27T20:48:13.847Z,18.77
2019-02-27T20:50:44.622Z,15.60
2019-02-27T20:53:14.236Z,17.93
2019-02-27T20:55:44.071Z,21.90
2019-02-27T20:58:16.743Z,17.80
2019-02-27T21:00:45.013Z,19.50
2019-02-27T21:03:14.568Z,21.40
2019-02-27T21:05:44.181Z,24.37
2019-02-27T21:08:13.926Z,23.37
2019-02-27T21:10:43.574Z,27.30
2019-02-27T21:13:15.963Z,25.17
2019-02-27T21:15:44.518Z,27.83
2019-02-27T21:18:14.201Z,26.17
2019-02-27T21:20:45.208Z,23.20
2019-02-27T21:23:15.193Z,23.00
2019-02-27T21:25:48.726Z,25.73
2019-02-27T21:28:20.867Z,19.30
2019-02-27T21:30:51.835Z,16.67
2019-02-27T21:33:18.724Z,22.80
2019-02-27T21:35:48.335Z,24.57
2019-02-27T21:38:17.896Z,23.33
2019-02-27T21:40:47.462Z,20.07
2019-02-27T21:43:16.995Z,31.30
2019-02-27T21:45:46.742Z,29.17
2019-02-27T21:48:16.313Z,18.20
2019-02-27T21:50:45.854Z,22.90
2019-02-27T21:53:15.456Z,29.17
2019-02-27T21:55:45.498Z,23.33
2019-02-27T21:58:20.292Z,26.50
2019-02-27T22:00:48.191Z,21.90
2019-02-27T22:03:17.909Z,26.60
2019-02-27T22:05:52.548Z,25.20
2019-02-27T22:08:19.234Z,22.17
2019-02-27T22:10:53.302Z,33.30
2019-02-27T22:13:28.889Z,31.77
2019-02-27T22:15:55.926Z,31.87
2019-02-27T22:18:22.851Z,32.50
2019-02-27T22:20:52.392Z,36.27
2019-02-27T22:23:21.939Z,41.73
2019-02-27T22:25:51.499Z,41.07
2019-02-27T22:28:21.060Z,38.57
2019-02-27T22:30:50.599Z,121.83
2019-02-27T22:33:22.953Z,162.57
2019-02-27T22:35:51.493Z,200.87
2019-02-27T22:38:25.558Z,99.17
2019-02-27T22:40:52.342Z,110.73
2019-02-27T22:43:22.807Z,92.80
2019-02-27T22:45:52.466Z,96.87
2019-02-27T22:48:22.024Z,97.40
2019-02-27T22:50:51.594Z,206.43
2019-02-27T22:53:21.136Z,253.50
2019-02-27T22:55:50.790Z,190.77
2019-02-27T22:58:20.359Z,118.33
2019-02-27T23:01:16.526Z,301.67
2019-02-27T23:03:51.661Z,318.57
2019-02-27T23:06:21.201Z,99.03
2019-02-27T23:08:50.781Z,251.73
2019-02-27T23:11:20.385Z,107.23
2019-02-27T23:13:49.970Z,103.20
2019-02-27T23:16:20.489Z,100.63
2019-02-27T23:18:50.055Z,92.87
2019-02-27T23:21:19.742Z,73.63
2019-02-27T23:23:49.284Z,64.17
2019-02-27T23:26:20.159Z,60.20
2019-02-27T23:28:50.266Z,46.63
2019-02-27T23:31:23.302Z,135.23
2019-02-27T23:33:51.264Z,65.30
2019-02-27T23:36:22.040Z,98.93
2019-02-27T23:38:52.173Z,60.13
2019-02-27T23:41:23.203Z,57.57
2019-02-27T23:43:53.041Z,45.90
2019-02-27T23:46:22.599Z,90.30
2019-02-27T23:48:52.258Z,84.13
2019-02-27T23:51:21.829Z,73.60
2019-02-27T23:53:51.458Z,92.10
2019-02-27T23:56:21.068Z,61.77
2019-02-27T23:58:50.688Z,73.87
